createdAt,value
2019-05-22T00:01:13.637Z,99.90
2019-05-22T00:03:57.029Z,99.90
2019-05-22T00:06:30.277Z,99.90
2019-05-22T00:08:59.394Z,99.90
2019-05-22T00:11:29.753Z,99.90
2019-05-22T00:14:00.174Z,99.90
2019-05-22T00:16:30.653Z,99.90
2019-05-22T00:18:59.526Z,99.90
2019-05-22T00:21:28.640Z,99.90
2019-05-22T00:23:59.633Z,99.90
2019-05-22T00:28:57.340Z,99.90
2019-05-22T00:31:27.069Z,99.90
2019-05-22T00:33:58.170Z,99.90
2019-05-22T00:36:29.286Z,99.90
2019-05-22T00:38:58.224Z,99.90
2019-05-22T00:41:28.744Z,99.90
2019-05-22T00:43:59.457Z,99.90
2019-05-22T00:46:28.420Z,99.90
2019-05-22T00:48:57.561Z,99.90
2019-05-22T00:51:37.526Z,99.90
2019-05-22T00:54:36.708Z,99.90
2019-05-22T00:57:22.882Z,99.90
2019-05-22T00:59:52.890Z,99.90
2019-05-22T01:02:26.709Z,99.90
2019-05-22T01:04:57.418Z,99.90
2019-05-22T01:07:36.995Z,99.90
2019-05-22T01:12:42.364Z,99.90
2019-05-22T01:15:14.561Z,99.90
2019-05-22T01:17:44.802Z,99.90
2019-05-22T01:20:16.469Z,99.90
2019-05-22T01:22:48.411Z,99.90
2019-05-22T01:25:21.252Z,99.90
2019-05-22T01:27:50.224Z,99.90
2019-05-22T01:33:16.608Z,99.90
2019-05-22T01:35:53.114Z,99.90
2019-05-22T01:38:23.569Z,99.90
2019-05-22T01:40:57.407Z,99.90
2019-05-22T01:43:28.187Z,99.90
2019-05-22T01:46:01.209Z,99.90
2019-05-22T01:48:35.849Z,99.90
2019-05-22T01:51:06.425Z,99.90
2019-05-22T01:53:38.642Z,99.90
2019-05-22T01:56:11.151Z,99.90
2019-05-22T01:58:44.794Z,99.90
2019-05-22T02:01:16.125Z,99.90
2019-05-22T02:03:46.973Z,99.90
2019-05-22T02:06:17.821Z,99.90
2019-05-22T02:08:55.409Z,99.90
2019-05-22T02:11:27.209Z,99.90
2019-05-22T02:14:06.185Z,99.90
2019-05-22T02:16:36.595Z,99.90
2019-05-22T02:19:07.011Z,99.90
2019-05-22T02:21:35.832Z,99.90
2019-05-22T02:24:06.225Z,99.90
2019-05-22T02:26:35.550Z,99.90
2019-05-22T02:29:06.199Z,99.90
2019-05-22T02:31:36.253Z,99.90
2019-05-22T02:34:42.479Z,99.90
2019-05-22T02:42:18.978Z,99.90
2019-05-22T02:44:48.539Z,99.90
2019-05-22T02:47:20.980Z,99.90
2019-05-22T02:49:50.210Z,99.90
2019-05-22T02:52:20.060Z,99.90
2019-05-22T02:54:49.802Z,99.90
2019-05-22T02:57:19.192Z,99.90
2019-05-22T02:59:48.522Z,99.90
2019-05-22T03:02:18.325Z,99.90
2019-05-22T03:09:53.390Z,99.90
2019-05-22T03:12:24.553Z,99.90
2019-05-22T03:14:54.459Z,99.90
2019-05-22T03:17:30.587Z,99.90
2019-05-22T03:22:37.149Z,99.90
2019-05-22T03:25:10.979Z,99.90
2019-05-22T03:30:14.739Z,99.90
2019-05-22T03:32:45.330Z,99.90
2019-05-22T03:37:43.485Z,99.90
2019-05-22T03:40:12.993Z,99.90
2019-05-22T03:42:42.638Z,99.90
2019-05-22T03:45:13.475Z,99.90
2019-05-22T03:57:40.027Z,99.90
2019-05-22T04:00:13.512Z,99.90
2019-05-22T04:02:43.297Z,99.90
2019-05-22T04:05:14.554Z,99.90
2019-05-22T04:07:43.798Z,99.90
2019-05-22T04:10:13.812Z,99.90
2019-05-22T04:12:43.146Z,99.90
2019-05-22T04:15:12.338Z,99.90
2019-05-22T04:17:44.407Z,99.90
2019-05-22T04:20:16.827Z,99.90
2019-05-22T04:22:45.702Z,99.90
2019-05-22T04:25:14.543Z,99.90
2019-05-22T04:27:43.770Z,99.90
2019-05-22T04:30:14.273Z,99.90
2019-05-22T04:32:44.670Z,99.90
2019-05-22T04:35:17.258Z,99.90
2019-05-22T04:37:49.122Z,99.90
2019-05-22T04:40:57.896Z,99.90
2019-05-22T04:43:30.802Z,99.90
2019-05-22T04:46:01.281Z,99.90
2019-05-22T04:48:32.603Z,99.90
2019-05-22T04:51:23.876Z,99.90
2019-05-22T04:56:22.540Z,99.90
2019-05-22T04:58:52.275Z,99.90
2019-05-22T05:01:22.201Z,99.90
2019-05-22T05:03:53.442Z,99.90
2019-05-22T05:06:25.966Z,99.90
2019-05-22T05:08:56.369Z,99.90
2019-05-22T05:11:26.075Z,99.90
2019-05-22T05:13:55.364Z,99.90
2019-05-22T05:16:24.426Z,99.90
2019-05-22T05:21:22.239Z,99.90
2019-05-22T05:23:51.086Z,99.90
2019-05-22T05:26:20.405Z,99.90
2019-05-22T05:28:49.825Z,99.90
2019-05-22T05:34:23.466Z,99.90
2019-05-22T05:36:52.717Z,99.90
2019-05-22T05:40:09.076Z,99.90
2019-05-22T05:42:38.577Z,99.90
2019-05-22T05:45:13.337Z,99.90
2019-05-22T05:47:41.635Z,99.90
2019-05-22T05:50:13.006Z,99.90
2019-05-22T05:52:42.583Z,99.90
2019-05-22T05:55:12.851Z,99.90
2019-05-22T05:58:32.883Z,99.90
2019-05-22T06:01:11.617Z,99.90
2019-05-22T06:03:42.270Z,99.90
2019-05-22T06:14:20.626Z,99.90
2019-05-22T06:17:44.842Z,99.90
2019-05-22T06:20:19.112Z,99.90
2019-05-22T06:23:45.877Z,99.90
2019-05-22T06:26:28.271Z,99.90
2019-05-22T06:28:58.394Z,99.90
2019-05-22T06:31:40.366Z,99.90
2019-05-22T06:34:09.221Z,99.90
2019-05-22T06:39:13.661Z,99.90
2019-05-22T06:41:43.982Z,99.90
2019-05-22T06:44:38.905Z,99.90
2019-05-22T06:47:11.297Z,99.90
2019-05-22T06:49:52.767Z,99.90
2019-05-22T06:52:22.365Z,99.90
2019-05-22T06:54:52.701Z,99.90
2019-05-22T06:57:22.934Z,99.90
2019-05-22T07:00:11.356Z,99.90
2019-05-22T07:02:23.550Z,99.90
2019-05-22T07:04:52.671Z,99.90
2019-05-22T07:07:24.109Z,99.90
2019-05-22T07:09:54.725Z,99.90
2019-05-22T07:12:24.754Z,99.90
2019-05-22T07:15:46.351Z,99.90
2019-05-22T07:18:17.737Z,99.90
2019-05-22T07:20:47.469Z,99.90
2019-05-22T07:23:22.678Z,99.90
2019-05-22T07:25:52.158Z,99.90
2019-05-22T07:28:22.346Z,99.90
2019-05-22T07:30:51.460Z,99.90
2019-05-22T07:33:20.855Z,99.90
2019-05-22T07:36:08.487Z,99.90
2019-05-22T07:38:23.001Z,99.90
2019-05-22T07:40:52.807Z,99.90
2019-05-22T07:43:23.127Z,99.90
2019-05-22T07:45:52.579Z,99.90
2019-05-22T07:48:23.993Z,99.90
2019-05-22T07:50:55.189Z,99.90
2019-05-22T07:55:55.099Z,99.90
2019-05-22T07:58:25.601Z,99.90
2019-05-22T08:00:57.309Z,99.90
2019-05-22T08:03:27.549Z,99.90
2019-05-22T08:05:57.686Z,99.90
2019-05-22T08:08:27.595Z,99.90
2019-05-22T08:10:57.901Z,99.90
2019-05-22T08:13:27.757Z,99.90
2019-05-22T08:15:57.594Z,99.90
2019-05-22T08:18:27.945Z,99.90
2019-05-22T08:20:57.301Z,99.90
2019-05-22T08:23:28.220Z,99.90
2019-05-22T08:25:59.483Z,99.90
2019-05-22T08:28:31.156Z,99.90
2019-05-22T08:31:01.578Z,99.90
2019-05-22T08:33:32.089Z,99.90
2019-05-22T08:36:03.099Z,99.90
2019-05-22T08:38:33.615Z,99.90
2019-05-22T08:41:05.216Z,99.90
2019-05-22T08:43:52.618Z,99.90
2019-05-22T08:46:07.269Z,99.90
2019-05-22T08:48:38.619Z,99.90
2019-05-22T08:51:09.514Z,99.90
2019-05-22T08:53:47.679Z,99.90
2019-05-22T08:56:10.877Z,99.90
2019-05-22T08:58:44.164Z,99.90
2019-05-22T09:01:13.877Z,99.90
2019-05-22T09:03:43.449Z,99.90
2019-05-22T09:06:12.449Z,99.90
2019-05-22T09:13:38.739Z,99.10
2019-05-22T09:16:09.795Z,98.90
2019-05-22T09:28:35.216Z,98.70
2019-05-22T09:31:04.360Z,98.90
2019-05-22T09:40:59.554Z,97.10
2019-05-22T09:43:28.430Z,96.40
2019-05-22T09:55:51.774Z,93.90
2019-05-22T10:00:48.954Z,93.00
2019-05-22T10:03:19.063Z,93.00
2019-05-22T10:05:48.262Z,92.30
2019-05-22T10:08:17.211Z,92.10
2019-05-22T10:13:14.534Z,91.70
2019-05-22T10:15:43.428Z,91.60
2019-05-22T10:18:12.749Z,91.60
2019-05-22T10:20:41.669Z,91.50
2019-05-22T10:23:16.202Z,90.10
2019-05-22T10:25:41.909Z,89.60
2019-05-22T10:28:11.707Z,90.50
2019-05-22T10:30:40.718Z,90.10
2019-05-22T10:33:09.831Z,90.40
2019-05-22T10:35:39.377Z,90.00
2019-05-22T10:40:37.281Z,90.80
2019-05-22T10:43:06.156Z,90.20
2019-05-22T10:45:35.101Z,90.60
2019-05-22T10:48:04.440Z,90.20
2019-05-22T10:53:02.298Z,90.20
2019-05-22T10:58:00.754Z,89.90
2019-05-22T11:00:30.389Z,88.90
2019-05-22T11:02:59.330Z,86.00
2019-05-22T11:05:28.323Z,88.70
2019-05-22T11:07:57.639Z,87.50
2019-05-22T11:10:27.488Z,89.20
2019-05-22T11:12:56.961Z,88.10
2019-05-22T11:15:26.186Z,84.30
2019-05-22T11:17:58.182Z,82.60
2019-05-22T11:22:57.291Z,83.00
2019-05-22T11:32:53.388Z,86.30
2019-05-22T11:35:25.287Z,84.10
2019-05-22T11:42:52.809Z,82.40
2019-05-22T11:45:22.578Z,83.80
2019-05-22T11:47:52.444Z,85.20
2019-05-22T11:50:23.402Z,85.90
2019-05-22T11:52:52.702Z,84.70
2019-05-22T11:55:22.944Z,86.80
2019-05-22T11:57:52.357Z,84.80
2019-05-22T12:00:22.133Z,86.10
2019-05-22T12:02:52.108Z,87.30
2019-05-22T12:07:51.236Z,87.30
2019-05-22T12:10:21.947Z,86.50
2019-05-22T12:12:52.036Z,84.50
2019-05-22T12:15:23.866Z,84.40
2019-05-22T12:20:23.383Z,80.80
2019-05-22T12:22:52.545Z,82.60
2019-05-22T12:25:21.851Z,82.00
2019-05-22T12:30:20.203Z,83.90
2019-05-22T12:35:19.141Z,83.80
2019-05-22T12:37:48.202Z,83.70
2019-05-22T12:40:22.756Z,81.00
2019-05-22T12:42:52.811Z,82.50
2019-05-22T12:45:27.707Z,83.20
2019-05-22T12:52:56.829Z,79.80
2019-05-22T12:55:25.868Z,80.30
2019-05-22T12:57:55.603Z,80.00
2019-05-22T13:02:56.425Z,80.60
2019-05-22T13:05:26.241Z,79.50
2019-05-22T13:07:58.570Z,77.50
2019-05-22T13:15:25.698Z,80.60
2019-05-22T13:17:57.818Z,79.40
2019-05-22T13:20:42.318Z,79.90
2019-05-22T13:23:05.559Z,79.30
2019-05-22T13:25:36.818Z,80.30
2019-05-22T13:28:06.850Z,78.60
2019-05-22T13:30:37.644Z,78.90
2019-05-22T13:33:08.305Z,81.20
2019-05-22T13:38:06.949Z,78.70
2019-05-22T13:40:36.428Z,79.30
2019-05-22T13:43:05.685Z,79.80
2019-05-22T13:48:04.121Z,79.50
2019-05-22T13:50:33.304Z,78.30
2019-05-22T13:53:04.632Z,78.90
2019-05-22T13:55:33.752Z,78.90
2019-05-22T14:00:32.601Z,79.30
2019-05-22T14:05:30.786Z,79.20
2019-05-22T14:08:00.521Z,79.10
2019-05-22T14:10:30.285Z,79.60
2019-05-22T14:20:25.308Z,81.80
2019-05-22T14:27:52.524Z,82.30
2019-05-22T14:30:23.877Z,82.80
2019-05-22T14:32:52.731Z,82.40
2019-05-22T14:37:51.515Z,79.50
2019-05-22T14:42:49.189Z,79.60
2019-05-22T14:45:18.386Z,77.70
2019-05-22T14:47:47.400Z,76.60
2019-05-22T14:50:17.132Z,76.40
2019-05-22T14:52:45.962Z,75.50
2019-05-22T14:55:15.646Z,76.50
2019-05-22T14:57:45.132Z,74.30
2019-05-22T15:02:44.425Z,75.10
2019-05-22T15:05:13.814Z,76.10
2019-05-22T15:07:42.929Z,75.10
2019-05-22T15:10:16.873Z,76.10
2019-05-22T15:12:44.019Z,75.70
2019-05-22T15:17:42.389Z,77.90
2019-05-22T15:20:15.886Z,76.70
2019-05-22T15:22:45.073Z,77.00
2019-05-22T15:25:14.204Z,78.30
2019-05-22T15:27:44.362Z,78.90
2019-05-22T15:30:14.508Z,76.90
2019-05-22T15:32:43.832Z,75.50
2019-05-22T15:37:41.864Z,77.60
2019-05-22T15:40:11.781Z,78.10
2019-05-22T15:42:42.759Z,77.80
2019-05-22T15:47:54.857Z,78.50
2019-05-22T15:50:19.397Z,76.80
2019-05-22T15:52:53.400Z,77.50
2019-05-22T15:55:24.811Z,77.30
2019-05-22T15:57:55.838Z,77.90
2019-05-22T16:00:26.989Z,77.40
2019-05-22T16:07:54.189Z,76.30
2019-05-22T16:10:25.323Z,75.90
2019-05-22T16:12:56.194Z,76.50
2019-05-22T16:15:26.689Z,76.90
2019-05-22T16:18:11.234Z,76.70
2019-05-22T16:20:28.101Z,77.00
2019-05-22T16:22:57.581Z,78.50
2019-05-22T16:25:27.389Z,79.10
2019-05-22T16:27:56.498Z,80.00
2019-05-22T16:30:27.728Z,77.50
2019-05-22T16:32:57.719Z,79.20
2019-05-22T16:35:27.774Z,82.40
2019-05-22T16:37:58.026Z,85.50
2019-05-22T16:42:58.137Z,83.20
2019-05-22T16:47:56.499Z,85.20
2019-05-22T16:52:56.153Z,87.20
2019-05-22T16:55:25.408Z,87.90
2019-05-22T16:57:55.288Z,87.70
2019-05-22T17:00:26.390Z,89.50
2019-05-22T17:02:55.466Z,90.10
2019-05-22T17:05:25.091Z,90.40
2019-05-22T17:07:54.473Z,90.40
2019-05-22T17:10:24.046Z,90.30
2019-05-22T17:12:53.501Z,90.20
2019-05-22T17:15:24.117Z,88.60
2019-05-22T17:17:53.899Z,89.30
2019-05-22T17:22:54.095Z,89.00
2019-05-22T17:25:23.038Z,89.30
2019-05-22T17:27:52.652Z,90.30
2019-05-22T17:37:50.659Z,91.60
2019-05-22T17:40:21.037Z,91.60
2019-05-22T17:42:52.280Z,91.50
2019-05-22T17:45:25.561Z,91.90
2019-05-22T17:50:27.269Z,92.60
2019-05-22T17:52:56.474Z,93.40
2019-05-22T18:00:29.934Z,94.00
2019-05-22T18:10:25.851Z,95.50
2019-05-22T18:15:23.713Z,95.80
2019-05-22T18:17:52.719Z,96.40
2019-05-22T18:20:22.470Z,96.80
2019-05-22T18:22:51.493Z,97.20
2019-05-22T18:25:20.796Z,98.00
2019-05-22T18:30:20.358Z,98.60
2019-05-22T18:32:49.185Z,99.20
2019-05-22T18:40:16.028Z,99.90
2019-05-22T18:47:42.804Z,99.90
2019-05-22T18:50:12.010Z,99.90
2019-05-22T18:57:40.864Z,99.90
2019-05-22T19:15:01.079Z,99.90
2019-05-22T19:17:30.697Z,99.90
2019-05-22T19:19:59.961Z,99.90
2019-05-22T19:24:57.564Z,99.90
2019-05-22T19:27:26.423Z,99.90
2019-05-22T19:29:55.200Z,99.90
2019-05-22T19:32:24.373Z,99.90
2019-05-22T19:34:53.131Z,99.90
2019-05-22T19:37:22.156Z,99.90
2019-05-22T19:39:51.493Z,99.90
2019-05-22T19:44:49.189Z,99.90
2019-05-22T19:49:47.171Z,99.90
2019-05-22T19:52:21.666Z,99.90
2019-05-22T19:54:49.337Z,99.90
2019-05-22T19:57:18.592Z,99.90
2019-05-22T20:04:47.084Z,99.90
2019-05-22T20:07:17.598Z,99.90
2019-05-22T20:09:47.119Z,99.90
2019-05-22T20:17:15.228Z,99.90
2019-05-22T20:19:44.149Z,99.90
2019-05-22T20:22:14.757Z,99.90
2019-05-22T20:24:44.008Z,99.90
2019-05-22T20:27:13.243Z,99.90
2019-05-22T20:29:42.194Z,99.90
2019-05-22T20:32:12.946Z,99.90
2019-05-22T20:34:42.567Z,99.90
2019-05-22T20:37:12.318Z,99.90
2019-05-22T20:39:41.209Z,99.90
2019-05-22T20:42:11.309Z,99.90
2019-05-22T20:47:11.157Z,99.90
2019-05-22T20:49:42.979Z,99.90
2019-05-22T20:52:12.721Z,99.90
2019-05-22T20:54:43.424Z,99.90
2019-05-22T20:57:12.608Z,99.90
2019-05-22T20:59:44.013Z,99.90
2019-05-22T21:04:45.890Z,99.90
2019-05-22T21:07:17.926Z,99.90
2019-05-22T21:09:47.195Z,99.90
2019-05-22T21:12:17.844Z,99.90
2019-05-22T21:14:46.681Z,99.90
2019-05-22T21:19:46.210Z,99.90
2019-05-22T21:24:49.866Z,99.90
2019-05-22T21:27:18.715Z,99.90
2019-05-22T21:29:47.473Z,99.90
2019-05-22T21:32:16.997Z,99.90
2019-05-22T21:34:45.994Z,99.90
2019-05-22T21:37:16.072Z,99.90
2019-05-22T21:39:45.178Z,99.90
2019-05-22T21:42:14.638Z,99.90
2019-05-22T21:44:43.521Z,99.90
2019-05-22T21:47:13.618Z,99.90
2019-05-22T21:49:44.170Z,99.90
2019-05-22T21:52:13.414Z,99.90
2019-05-22T21:54:42.944Z,99.90
2019-05-22T21:57:12.594Z,99.90
2019-05-22T21:59:42.288Z,99.90
2019-05-22T22:02:18.543Z,99.90
2019-05-22T22:04:47.773Z,99.90
2019-05-22T22:07:17.253Z,99.90
2019-05-22T22:09:46.115Z,99.90
2019-05-22T22:12:18.165Z,99.90
2019-05-22T22:14:48.420Z,99.90
2019-05-22T22:17:18.980Z,99.90
2019-05-22T22:22:26.831Z,99.90
2019-05-22T22:24:55.928Z,99.90
2019-05-22T22:29:54.345Z,99.90
2019-05-22T22:32:24.856Z,99.90
2019-05-22T22:34:54.096Z,99.90
2019-05-22T22:37:24.682Z,99.90
2019-05-22T22:39:56.488Z,99.90
2019-05-22T22:42:29.109Z,99.90
2019-05-22T22:44:58.923Z,99.90
2019-05-22T22:52:32.417Z,99.90
2019-05-22T22:55:01.537Z,99.90
2019-05-22T22:57:30.977Z,99.90
2019-05-22T23:05:00.190Z,99.90
2019-05-22T23:07:31.601Z,99.90
2019-05-22T23:10:01.734Z,99.90
2019-05-22T23:12:32.358Z,99.90
2019-05-22T23:15:01.569Z,99.90
2019-05-22T23:17:30.907Z,99.90
2019-05-22T23:19:58.597Z,99.90
2019-05-22T23:22:28.505Z,99.90
2019-05-22T23:24:59.714Z,99.90
2019-05-22T23:27:31.272Z,99.90
2019-05-22T23:30:00.941Z,99.90
2019-05-22T23:32:31.460Z,99.90
2019-05-22T23:35:00.717Z,99.90
2019-05-22T23:37:29.760Z,99.90
2019-05-22T23:39:59.157Z,99.90
2019-05-22T23:42:36.093Z,99.90
2019-05-22T23:45:10.306Z,99.90
2019-05-22T23:47:48.121Z,99.90
2019-05-22T23:50:17.037Z,99.90
2019-05-22T23:52:46.468Z,99.90
2019-05-22T23:55:15.901Z,99.90
2019-05-22T23:57:47.190Z,99.90
